createdAt,value
2022-11-21T00:01:58.180Z,93574
2022-11-21T00:05:23.424Z,93576
2022-11-21T00:08:48.649Z,93576
2022-11-21T00:12:13.884Z,93574
2022-11-21T00:15:39.113Z,93567
2022-11-21T00:19:04.337Z,93560
2022-11-21T00:22:29.608Z,93561
2022-11-21T00:25:54.806Z,93561
2022-11-21T00:29:20.063Z,93556
2022-11-21T00:32:45.320Z,93547
2022-11-21T00:36:10.568Z,93539
2022-11-21T00:39:35.803Z,93544
2022-11-21T00:43:01.038Z,93528
2022-11-21T00:46:26.261Z,93540
2022-11-21T00:49:51.492Z,93540
2022-11-21T00:53:16.750Z,93544
2022-11-21T00:56:42.030Z,93547
2022-11-21T01:00:07.283Z,93558
2022-11-21T01:03:32.508Z,93545
2022-11-21T01:06:57.817Z,93540
2022-11-21T01:10:23.038Z,93541
2022-11-21T01:13:48.300Z,93533
2022-11-21T01:17:13.490Z,93524
2022-11-21T01:20:38.726Z,93512
2022-11-21T01:24:03.932Z,93509
2022-11-21T01:27:29.192Z,93519
2022-11-21T01:30:54.429Z,93523
2022-11-21T01:34:19.625Z,93516
2022-11-21T01:37:44.843Z,93512
2022-11-21T01:41:10.066Z,93507
2022-11-21T01:44:35.276Z,93505
2022-11-21T01:48:00.517Z,93495
2022-11-21T01:51:25.750Z,93495
2022-11-21T01:54:51.043Z,93495
2022-11-21T01:58:16.276Z,93497
2022-11-21T02:01:41.515Z,93501
2022-11-21T02:05:06.764Z,93490
2022-11-21T02:08:31.981Z,93481
2022-11-21T02:11:57.200Z,93481
2022-11-21T02:15:22.457Z,93475
2022-11-21T02:18:47.649Z,93477
2022-11-21T02:22:12.899Z,93470
2022-11-21T02:25:38.123Z,93466
2022-11-21T02:29:03.343Z,93468
2022-11-21T02:32:28.573Z,93463
2022-11-21T02:35:53.780Z,93461
2022-11-21T02:39:19.028Z,93464
2022-11-21T02:42:46.839Z,93457
2022-11-21T02:46:09.481Z,93462
2022-11-21T02:49:34.702Z,93447
2022-11-21T02:52:59.925Z,93453
2022-11-21T02:56:25.168Z,93451
2022-11-21T02:59:50.348Z,93448
2022-11-21T03:03:15.578Z,93446
2022-11-21T03:06:40.820Z,93442
2022-11-21T03:10:06.029Z,93446
2022-11-21T03:13:31.296Z,93447
2022-11-21T03:16:56.466Z,93447
2022-11-21T03:20:21.685Z,93450
2022-11-21T03:23:46.933Z,93442
2022-11-21T03:27:12.142Z,93434
2022-11-21T03:30:37.415Z,93432
2022-11-21T03:34:02.603Z,93433
2022-11-21T03:37:27.807Z,93429
2022-11-21T03:40:53.007Z,93423
2022-11-21T03:44:18.229Z,93429
2022-11-21T03:47:43.487Z,93437
2022-11-21T03:51:08.694Z,93436
2022-11-21T03:54:33.904Z,93439
2022-11-21T03:57:59.132Z,93438
2022-11-21T04:01:24.420Z,93435
2022-11-21T04:04:49.597Z,93444
2022-11-21T04:08:14.848Z,93448
2022-11-21T04:11:40.061Z,93452
2022-11-21T04:15:08.159Z,93450
2022-11-21T04:18:30.492Z,93456
2022-11-21T04:21:55.725Z,93452
2022-11-21T04:25:20.916Z,93459
2022-11-21T04:28:46.120Z,93459
2022-11-21T04:32:11.326Z,93461
2022-11-21T04:35:36.537Z,93463
2022-11-21T04:39:01.822Z,93459
2022-11-21T04:42:27.028Z,93463
2022-11-21T04:45:52.247Z,93463
2022-11-21T04:49:17.450Z,93469
2022-11-21T04:52:42.674Z,93471
2022-11-21T04:56:07.934Z,93473
2022-11-21T04:59:33.127Z,93489
2022-11-21T05:02:58.410Z,93487
2022-11-21T05:06:23.674Z,93490
2022-11-21T05:09:48.930Z,93497
2022-11-21T05:13:14.180Z,93497
2022-11-21T05:16:39.380Z,93502
2022-11-21T05:20:04.593Z,93497
2022-11-21T05:23:29.837Z,93495
2022-11-21T05:26:55.089Z,93495
2022-11-21T05:30:20.357Z,93500
2022-11-21T05:33:45.559Z,93503
2022-11-21T05:37:10.822Z,93511
2022-11-21T05:40:36.051Z,93519
2022-11-21T05:44:01.264Z,93518
2022-11-21T05:47:26.523Z,93521
2022-11-21T05:50:51.775Z,93532
2022-11-21T05:54:17.064Z,93531
2022-11-21T05:57:42.277Z,93538
2022-11-21T06:01:07.498Z,93548
2022-11-21T06:04:32.762Z,93556
2022-11-21T06:07:57.964Z,93559
2022-11-21T06:11:23.187Z,93564
2022-11-21T06:14:49.278Z,93571
2022-11-21T06:18:14.494Z,93577
2022-11-21T06:21:39.727Z,93582
2022-11-21T06:25:04.914Z,93591
2022-11-21T06:28:30.131Z,93595
2022-11-21T06:31:55.369Z,93596
2022-11-21T06:35:20.614Z,93603
2022-11-21T06:38:45.872Z,93605
2022-11-21T06:42:11.066Z,93614
2022-11-21T06:45:36.286Z,93621
2022-11-21T06:49:01.488Z,93625
2022-11-21T06:52:26.703Z,93636
2022-11-21T06:55:51.939Z,93640
2022-11-21T06:59:17.168Z,93641
2022-11-21T07:02:42.387Z,93646
2022-11-21T07:06:07.631Z,93654
2022-11-21T07:09:34.063Z,93659
2022-11-21T07:12:58.160Z,93662
2022-11-21T07:16:23.376Z,93667
2022-11-21T07:19:48.689Z,93671
2022-11-21T07:23:13.901Z,93675
2022-11-21T07:26:39.111Z,93677
2022-11-21T07:30:04.347Z,93681
2022-11-21T07:33:29.537Z,93680
2022-11-21T07:36:54.742Z,93685
2022-11-21T07:40:19.949Z,93686
2022-11-21T07:43:45.142Z,93692
2022-11-21T07:47:10.402Z,93692
2022-11-21T07:50:35.575Z,93698
2022-11-21T07:54:00.758Z,93699
2022-11-21T07:57:25.973Z,93694
2022-11-21T08:00:51.163Z,93689
2022-11-21T08:04:16.387Z,93694
2022-11-21T08:07:41.627Z,93694
2022-11-21T08:11:06.777Z,93696
2022-11-21T08:14:31.988Z,93696
2022-11-21T08:17:57.199Z,93700
2022-11-21T08:21:22.419Z,93698
2022-11-21T08:24:47.606Z,93702
2022-11-21T08:28:13.802Z,93699
2022-11-21T08:31:39.008Z,93697
2022-11-21T08:35:04.202Z,93698
2022-11-21T08:38:29.445Z,93701
2022-11-21T08:41:54.623Z,93697
2022-11-21T08:45:19.819Z,93708
2022-11-21T08:48:45.013Z,93724
2022-11-21T08:52:10.235Z,93723
2022-11-21T08:55:35.487Z,93721
2022-11-21T08:59:00.653Z,93721
2022-11-21T09:02:25.857Z,93713
2022-11-21T09:05:51.071Z,93718
2022-11-21T09:09:19.396Z,93714
2022-11-21T09:12:41.500Z,93719
2022-11-21T09:16:06.690Z,93715
2022-11-21T09:19:31.888Z,93716
2022-11-21T09:22:57.096Z,93722
2022-11-21T09:26:22.295Z,93723
2022-11-21T09:29:52.420Z,93721
2022-11-21T09:33:12.694Z,93726
2022-11-21T09:36:37.890Z,93724
2022-11-21T09:40:03.079Z,93719
2022-11-21T09:43:28.304Z,93727
2022-11-21T09:46:53.534Z,93735
2022-11-21T09:50:18.708Z,93731
2022-11-21T09:53:43.928Z,93727
2022-11-21T09:57:09.131Z,93725
2022-11-21T10:00:34.413Z,93730
2022-11-21T10:03:59.573Z,93729
2022-11-21T10:07:24.784Z,93727
2022-11-21T10:10:49.975Z,93735
2022-11-21T10:14:15.179Z,93724
2022-11-21T10:17:40.436Z,93727
2022-11-21T10:21:05.689Z,93726
2022-11-21T10:24:31.093Z,93732
2022-11-21T10:27:56.065Z,93728
2022-11-21T10:31:21.273Z,93726
2022-11-21T10:34:46.468Z,93723
2022-11-21T10:38:11.693Z,93713
2022-11-21T10:41:36.891Z,93716
2022-11-21T10:45:02.074Z,93719
2022-11-21T10:48:27.285Z,93722
2022-11-21T10:51:52.529Z,93722
2022-11-21T10:55:17.914Z,93714
2022-11-21T10:58:43.081Z,93710
2022-11-21T11:02:08.290Z,93715
2022-11-21T11:05:33.517Z,93714
2022-11-21T11:08:58.807Z,93713
2022-11-21T11:12:24.030Z,93710
2022-11-21T11:15:49.194Z,93707
2022-11-21T11:19:14.412Z,93708
2022-11-21T11:22:39.648Z,93708
2022-11-21T11:26:04.897Z,93704
2022-11-21T11:29:30.522Z,93705
2022-11-21T11:32:55.318Z,93696
2022-11-21T11:36:21.115Z,93689
2022-11-21T11:39:46.317Z,93691
2022-11-21T11:43:11.831Z,93686
2022-11-21T11:46:37.048Z,93680
2022-11-21T11:50:02.262Z,93685
2022-11-21T11:53:27.495Z,93682
2022-11-21T11:56:52.716Z,93677
2022-11-21T12:00:17.969Z,93676
2022-11-21T12:03:43.229Z,93679
2022-11-21T12:10:33.680Z,93682
2022-11-21T12:13:58.915Z,93678
2022-11-21T12:17:24.149Z,93680
2022-11-21T12:20:49.385Z,93684
2022-11-21T12:24:14.603Z,93682
2022-11-21T12:27:39.851Z,93674
2022-11-21T12:31:05.114Z,93673
2022-11-21T12:34:30.339Z,93671
2022-11-21T12:37:55.594Z,93673
2022-11-21T12:41:20.797Z,93675
2022-11-21T12:44:47.067Z,93672
2022-11-21T12:48:11.279Z,93667
2022-11-21T12:51:36.490Z,93663
2022-11-21T12:55:01.706Z,93665
2022-11-21T12:58:26.930Z,93655
2022-11-21T13:01:52.201Z,93648
2022-11-21T13:05:17.438Z,93646
2022-11-21T13:08:42.657Z,93643
2022-11-21T13:12:07.916Z,93644
2022-11-21T13:15:38.137Z,93645
2022-11-21T13:18:58.347Z,93636
2022-11-21T13:22:23.625Z,93638
2022-11-21T13:25:48.855Z,93627
2022-11-21T13:29:14.822Z,93630
2022-11-21T13:32:40.115Z,93630
2022-11-21T13:36:05.386Z,93629
2022-11-21T13:39:30.952Z,93637
2022-11-21T13:43:18.024Z,93628
2022-11-21T13:46:21.142Z,93632
2022-11-21T13:49:47.050Z,93629
2022-11-21T13:53:11.728Z,93619
2022-11-21T13:56:36.984Z,93615
2022-11-21T14:00:02.267Z,93611
2022-11-21T14:03:27.567Z,93607
2022-11-21T14:06:52.948Z,93617
2022-11-21T14:10:18.197Z,93619
2022-11-21T14:13:43.461Z,93618
2022-11-21T14:17:08.755Z,93623
2022-11-21T14:20:34.096Z,93622
2022-11-21T14:23:59.347Z,93624
2022-11-21T14:27:24.653Z,93639
2022-11-21T15:06:26.812Z,93630
2022-11-21T15:13:17.396Z,93620
2022-11-21T15:16:42.678Z,93619
2022-11-21T15:20:11.332Z,93610
2022-11-21T15:23:33.406Z,93608
2022-11-21T15:26:58.694Z,93597
2022-11-21T15:30:23.988Z,93592
2022-11-21T15:34:06.391Z,93592
2022-11-21T15:37:14.682Z,93585
2022-11-21T15:40:42.982Z,93583
2022-11-21T15:44:05.246Z,93580
2022-11-21T15:47:30.508Z,93572
2022-11-21T15:50:58.755Z,93571
2022-11-21T15:54:21.102Z,93559
2022-11-21T15:57:46.960Z,93558
2022-11-21T16:01:11.749Z,93557
2022-11-21T16:04:36.964Z,93550
2022-11-21T16:08:02.328Z,93545
2022-11-21T16:11:27.681Z,93536
2022-11-21T16:14:52.983Z,93537
2022-11-21T16:18:18.269Z,93529
2022-11-21T16:21:43.571Z,93522
2022-11-21T16:25:08.899Z,93525
2022-11-21T16:28:34.235Z,93522
2022-11-21T16:31:59.541Z,93525
2022-11-21T16:35:24.880Z,93526
2022-11-21T16:38:50.361Z,93533
2022-11-21T16:42:16.244Z,93537
2022-11-21T16:45:41.560Z,93540
2022-11-21T16:49:07.113Z,93538
2022-11-21T16:52:32.322Z,93539
2022-11-21T16:55:57.651Z,93530
2022-11-21T16:59:22.994Z,93519
2022-11-21T17:02:48.311Z,93519
2022-11-21T17:06:13.642Z,93514
2022-11-21T17:09:38.949Z,93509
2022-11-21T17:13:04.248Z,93500
2022-11-21T17:16:29.582Z,93492
2022-11-21T17:19:54.862Z,93482
2022-11-21T17:23:20.163Z,93469
2022-11-21T17:26:45.443Z,93469
2022-11-21T17:30:10.733Z,93463
2022-11-21T17:33:36.028Z,93444
2022-11-21T17:37:01.285Z,93439
2022-11-21T17:40:26.565Z,93443
2022-11-21T17:43:51.855Z,93438
2022-11-21T17:47:17.142Z,93430
2022-11-21T17:50:42.434Z,93420
2022-11-21T17:54:07.717Z,93418
2022-11-21T17:57:33.058Z,93406
2022-11-21T18:00:59.571Z,93395
2022-11-21T18:04:23.589Z,93384
2022-11-21T18:07:48.878Z,93382
2022-11-21T18:11:14.116Z,93372
2022-11-21T18:14:39.430Z,93376
2022-11-21T18:18:04.665Z,93374
2022-11-21T18:21:29.927Z,93377
2022-11-21T18:24:55.174Z,93375
2022-11-21T18:28:20.451Z,93374
2022-11-21T18:31:45.726Z,93368
2022-11-21T18:35:10.983Z,93366
2022-11-21T18:38:57.936Z,93368
2022-11-21T18:42:01.468Z,93374
2022-11-21T18:45:26.766Z,93373
2022-11-21T18:49:02.655Z,93374
2022-11-21T18:52:17.349Z,93379
2022-11-21T18:55:42.608Z,93376
2022-11-21T18:59:07.857Z,93377
2022-11-21T19:02:33.123Z,93374
2022-11-21T19:05:58.416Z,93373
2022-11-21T19:09:26.894Z,93362
2022-11-21T19:12:48.892Z,93354
2022-11-21T19:16:14.132Z,93345
2022-11-21T19:19:39.337Z,93338
2022-11-21T19:23:04.604Z,93325
2022-11-21T19:26:29.794Z,93310
2022-11-21T19:29:55.039Z,93306
2022-11-21T19:33:20.250Z,93294
2022-11-21T19:36:45.498Z,93293
2022-11-21T19:40:10.740Z,93281
2022-11-21T19:43:35.925Z,93285
2022-11-21T19:47:01.134Z,93283
2022-11-21T19:50:26.339Z,93294
2022-11-21T19:53:51.588Z,93299
2022-11-21T19:57:16.811Z,93294
2022-11-21T20:00:42.024Z,93295
2022-11-21T20:04:07.244Z,93288
2022-11-21T20:07:32.602Z,93286
2022-11-21T20:11:00.793Z,93275
2022-11-21T20:14:23.270Z,93282
2022-11-21T20:17:48.241Z,93294
2022-11-21T20:21:13.555Z,93308
2022-11-21T20:24:42.034Z,93308
2022-11-21T20:28:07.450Z,93306
2022-11-21T20:31:29.175Z,93315
2022-11-21T20:34:54.363Z,93318
2022-11-21T20:38:24.139Z,93316
2022-11-21T20:41:44.876Z,93312
2022-11-21T20:48:35.316Z,93294
2022-11-21T20:55:25.656Z,93277
2022-11-21T20:58:50.859Z,93275
2022-11-21T21:02:16.055Z,93279
2022-11-21T21:05:41.281Z,93285
2022-11-21T21:09:06.442Z,93286
2022-11-21T21:12:31.645Z,93283
2022-11-21T21:15:56.836Z,93288
2022-11-21T21:19:22.610Z,93282
2022-11-21T21:22:47.795Z,93287
2022-11-21T21:26:12.970Z,93273
2022-11-21T21:29:38.157Z,93270
2022-11-21T21:33:03.370Z,93265
2022-11-21T21:36:28.578Z,93261
2022-11-21T21:39:53.783Z,93252
2022-11-21T21:43:18.950Z,93254
2022-11-21T21:46:44.142Z,93242
2022-11-21T21:50:14.472Z,93235
2022-11-21T21:53:34.530Z,93233
2022-11-21T21:56:59.750Z,93226
2022-11-21T22:00:24.912Z,93215
2022-11-21T22:03:50.105Z,93203
2022-11-21T22:07:15.366Z,93206
2022-11-21T22:10:40.501Z,93204
2022-11-21T22:14:05.728Z,93206
2022-11-21T22:17:30.888Z,93207
2022-11-21T22:20:56.088Z,93205
2022-11-21T22:24:26.164Z,93200
2022-11-21T22:27:46.483Z,93195
2022-11-21T22:31:11.711Z,93198
2022-11-21T22:34:36.872Z,93199
2022-11-21T22:38:02.063Z,93187
2022-11-21T22:41:27.255Z,93190
2022-11-21T22:44:52.450Z,93177
2022-11-21T22:48:17.655Z,93180
2022-11-21T22:51:42.825Z,93184
2022-11-21T22:55:08.017Z,93187
2022-11-21T22:58:33.206Z,93179
2022-11-21T23:01:58.468Z,93177
2022-11-21T23:05:23.626Z,93171
2022-11-21T23:08:48.811Z,93171
2022-11-21T23:12:13.981Z,93165
2022-11-21T23:15:39.179Z,93166
2022-11-21T23:19:04.360Z,93168
2022-11-21T23:22:29.566Z,93164
2022-11-21T23:25:54.725Z,93159
2022-11-21T23:29:19.914Z,93147
2022-11-21T23:32:45.101Z,93149
2022-11-21T23:36:10.294Z,93150
2022-11-21T23:39:35.519Z,93141
2022-11-21T23:43:00.697Z,93141
2022-11-21T23:46:25.893Z,93141
2022-11-21T23:49:51.082Z,93134
2022-11-21T23:53:16.275Z,93130
2022-11-21T23:56:41.500Z,93135
